Terminal Aerodrome Forecast
Issued by NWS Atlanta, GA

Home | Current Version | Previous Version | Text Only | Print | Product List | Glossary On
Versions: 1 2 3 4 5 6 7 8 9 10 11 12
000
FTUS42 KFFC 300538
TAFCSG
TAF
KCSG 300538Z 3006/3106 00000KT P6SM SKC
     FM301600 32007KT P6SM FEW045
     FM310100 35003KT P6SM FEW250=

USA.gov is the U.S. government's official web portal to all federal, state and local government web resources and services.